Time;durP1;ratioP1;P1;durP2;ratioP2;P2;SDS_P1;SDS_P2;PMS_P1;PMS_P2;Temp;Humidity;BMP_temperature;BMP_pressure;BME280_temperature;BME280_humidity;BME280_pressure;Samples;Min_cycle;Max_cycle;Signal;HPM_P1;HPM_P2
2023/05/10 00:01:32;;;;;;;12.10;9.93;;;13.10;99.90;;;;;;5113656;27;20039;-84
2023/05/10 00:03:58;;;;;;;10.38;9.07;;;13.20;99.90;;;;;;5131289;27;20103;-84
2023/05/10 00:06:23;;;;;;;11.20;9.65;;;13.00;99.90;;;;;;5114435;27;20042;-84
2023/05/10 00:08:49;;;;;;;11.13;9.25;;;13.00;99.90;;;;;;5113681;27;20065;-85
2023/05/10 00:11:14;;;;;;;11.32;9.63;;;13.40;99.90;;;;;;5114159;27;20078;-85
2023/05/10 00:13:40;;;;;;;9.38;8.38;;;13.00;99.90;;;;;;5112018;27;20566;-84
2023/05/10 00:16:06;;;;;;;9.75;8.75;;;13.00;99.90;;;;;;5113580;27;20043;-85
2023/05/10 00:18:31;;;;;;;9.93;8.48;;;13.00;99.90;;;;;;5113275;27;20398;-84
2023/05/10 00:20:57;;;;;;;9.18;8.25;;;13.00;99.90;;;;;;5113778;27;20104;-85
2023/05/10 00:23:22;;;;;;;8.93;8.02;;;13.00;99.90;;;;;;5113106;27;20043;-85
2023/05/10 00:25:48;;;;;;;9.25;8.25;;;12.90;99.90;;;;;;5113752;27;20038;-84
2023/05/10 00:28:14;;;;;;;10.68;8.45;;;13.00;99.90;;;;;;5095964;27;20122;-85
2023/05/10 00:30:39;;;;;;;8.65;7.78;;;13.00;99.90;;;;;;5109303;28;20040;-84
2023/05/10 00:33:05;;;;;;;8.68;7.38;;;13.10;99.90;;;;;;5100088;28;20047;-85
2023/05/10 00:35:30;;;;;;;8.52;7.63;;;12.90;99.90;;;;;;5125648;27;20039;-85
2023/05/10 00:37:56;;;;;;;10.25;7.78;;;13.00;99.90;;;;;;5110197;27;20533;-85
2023/05/10 00:40:22;;;;;;;7.85;7.05;;;13.10;99.90;;;;;;5079065;28;20044;-85
2023/05/10 00:42:47;;;;;;;8.73;7.22;;;12.90;99.90;;;;;;5078788;27;20120;-84
2023/05/10 00:45:14;;;;;;;10.32;7.82;;;12.90;99.90;;;;;;5112147;27;20031;-85
2023/05/10 00:47:40;;;;;;;7.95;6.90;;;12.90;99.90;;;;;;5131463;27;20047;-85
2023/05/10 00:50:06;;;;;;;8.02;7.22;;;12.90;99.90;;;;;;5096374;27;20078;-85
2023/05/10 00:52:32;;;;;;;8.32;7.43;;;12.90;99.90;;;;;;5113999;27;20084;-85
2023/05/10 00:54:58;;;;;;;9.40;7.30;;;12.90;99.90;;;;;;5113373;27;20069;-85
2023/05/10 00:57:24;;;;;;;9.95;7.85;;;12.80;99.90;;;;;;5113051;27;20047;-84
2023/05/10 00:59:51;;;;;;;9.73;8.15;;;12.80;99.90;;;;;;5113524;27;20078;-85
2023/05/10 01:02:17;;;;;;;8.85;7.95;;;12.80;99.90;;;;;;5113333;27;20093;-85
2023/05/10 01:04:43;;;;;;;10.15;7.93;;;12.80;99.90;;;;;;5095520;27;20047;-85
2023/05/10 01:07:08;;;;;;;10.07;7.97;;;12.80;99.90;;;;;;5112909;27;20051;-85
2023/05/10 01:09:34;;;;;;;9.85;7.80;;;12.80;99.90;;;;;;5113492;27;20051;-83
2023/05/10 01:12:01;;;;;;;8.93;7.30;;;12.80;99.90;;;;;;5112827;27;20410;-85
2023/05/10 01:14:27;;;;;;;8.27;7.40;;;12.80;99.90;;;;;;5095762;27;20134;-84
2023/05/10 01:16:54;;;;;;;12.07;8.18;;;12.80;99.90;;;;;;5112640;27;20062;-85
2023/05/10 01:19:23;;;;;;;8.52;6.95;;;12.80;99.90;;;;;;5111769;27;20043;-85
2023/05/10 01:21:57;;;;;;;9.70;7.32;;;12.80;99.90;;;;;;5112578;27;20508;-85
2023/05/10 01:25:01;;;;;;;8.63;7.72;;;12.70;99.90;;;;;;5112669;27;20088;-85
2023/05/10 01:28:07;;;;;;;9.65;7.68;;;12.70;99.90;;;;;;5112724;27;20046;-85
2023/05/10 01:30:44;;;;;;;9.10;7.30;;;12.70;99.90;;;;;;5112456;27;20047;-85
2023/05/10 01:33:44;;;;;;;9.50;7.10;;;12.70;99.90;;;;;;5111937;27;20047;-85
2023/05/10 01:36:50;;;;;;;9.82;7.13;;;12.70;99.90;;;;;;5106110;27;20508;-85
2023/05/10 01:39:24;;;;;;;9.00;6.65;;;12.70;99.90;;;;;;5099632;27;20054;-85
2023/05/10 01:41:55;;;;;;;8.43;6.55;;;12.70;99.90;;;;;;5109867;27;20039;-85
2023/05/10 01:44:45;;;;;;;8.93;6.72;;;12.70;99.90;;;;;;5111859;27;20058;-85
2023/05/10 01:47:12;;;;;;;7.85;6.45;;;12.70;99.90;;;;;;5107523;28;20527;-85
2023/05/10 01:49:44;;;;;;;8.65;6.70;;;12.70;99.90;;;;;;5106838;28;20047;-85
2023/05/10 01:52:13;;;;;;;8.57;6.78;;;12.70;99.90;;;;;;5108023;28;20043;-85
2023/05/10 01:54:49;;;;;;;9.18;6.85;;;13.20;99.90;;;;;;5091150;28;20055;-85
2023/05/10 01:57:19;;;;;;;8.45;6.18;;;12.50;99.90;;;;;;5106953;28;20047;-84
2023/05/10 01:59:49;;;;;;;9.48;7.00;;;12.90;99.90;;;;;;5108702;28;20036;-85
2023/05/10 02:02:16;;;;;;;8.68;6.80;;;12.70;99.90;;;;;;5107682;28;20214;-85
2023/05/10 02:04:43;;;;;;;8.27;6.55;;;12.70;99.90;;;;;;5090252;28;20036;-84
2023/05/10 02:07:10;;;;;;;7.88;6.40;;;12.70;99.90;;;;;;5107576;28;20533;-85
2023/05/10 02:09:37;;;;;;;8.68;6.32;;;12.70;99.90;;;;;;5089664;28;20055;-85
2023/05/10 02:12:06;;;;;;;8.02;6.93;;;12.70;99.90;;;;;;5109077;28;20514;-84
2023/05/10 02:14:34;;;;;;;9.60;6.70;;;12.60;99.90;;;;;;5107613;28;20047;-85
2023/05/10 02:17:04;;;;;;;7.82;6.70;;;12.70;99.90;;;;;;5106688;28;20043;-85
2023/05/10 02:19:31;;;;;;;7.80;6.18;;;12.60;99.90;;;;;;5107445;28;20151;-85
2023/05/10 02:21:58;;;;;;;7.90;6.05;;;12.60;99.90;;;;;;5089978;28;20164;-84
2023/05/10 02:24:25;;;;;;;8.13;6.57;;;12.60;99.90;;;;;;5089389;28;20466;-84
2023/05/10 02:26:53;;;;;;;9.63;6.53;;;12.70;99.90;;;;;;5106875;28;20383;-85
2023/05/10 02:29:20;;;;;;;9.20;6.50;;;12.60;99.90;;;;;;5107400;28;20532;-84
2023/05/10 02:31:46;;;;;;;7.95;6.45;;;12.60;99.90;;;;;;5107505;28;20432;-85
2023/05/10 02:34:13;;;;;;;8.38;6.82;;;12.60;99.90;;;;;;5087901;28;20046;-85
2023/05/10 02:36:39;;;;;;;7.38;6.43;;;12.60;99.90;;;;;;5105082;28;20085;-84
2023/05/10 02:39:09;;;;;;;10.57;6.95;;;12.70;99.90;;;;;;5090094;28;20044;-85
2023/05/10 02:41:36;;;;;;;7.38;5.97;;;12.60;99.90;;;;;;5106643;28;20058;-85
2023/05/10 02:44:05;;;;;;;8.15;6.55;;;12.60;99.90;;;;;;5104415;28;20042;-85
2023/05/10 02:46:31;;;;;;;7.93;6.70;;;12.60;99.90;;;;;;5106441;28;20524;-84
2023/05/10 02:48:57;;;;;;;10.13;6.50;;;12.60;99.90;;;;;;5107968;28;20043;-85
2023/05/10 02:51:27;;;;;;;8.05;6.35;;;12.60;99.90;;;;;;5107975;28;20085;-85
2023/05/10 02:53:54;;;;;;;7.15;5.93;;;12.60;99.90;;;;;;5105467;28;20413;-84
2023/05/10 02:56:25;;;;;;;7.68;6.68;;;12.60;99.90;;;;;;5106777;28;20375;-85
2023/05/10 02:58:51;;;;;;;8.13;6.10;;;12.60;99.90;;;;;;5105481;28;20480;-84
2023/05/10 03:01:17;;;;;;;8.65;6.63;;;12.60;99.90;;;;;;5106535;28;20132;-85
2023/05/10 03:03:43;;;;;;;7.20;6.28;;;12.60;99.90;;;;;;5104720;28;20043;-85
2023/05/10 03:06:09;;;;;;;8.80;6.80;;;12.60;99.90;;;;;;5104572;28;20074;-85
2023/05/10 03:08:35;;;;;;;7.95;6.60;;;12.60;99.90;;;;;;5105639;28;20810;-85
2023/05/10 03:11:20;;;;;;;8.35;6.47;;;12.60;99.90;;;;;;5105451;28;20043;-84
2023/05/10 03:14:07;;;;;;;7.47;6.60;;;12.60;99.90;;;;;;5104623;28;20123;-83
2023/05/10 03:16:46;;;;;;;7.05;5.88;;;12.60;99.90;;;;;;5091147;28;20039;-84
2023/05/10 03:19:39;;;;;;;6.90;5.97;;;12.60;99.90;;;;;;5088534;28;20058;-84
2023/05/10 03:22:08;;;;;;;;;;;12.50;99.90;;;;;;5073157;28;20059;-85
2023/05/10 03:24:36;;;;;;;6.95;6.03;;;12.50;99.90;;;;;;5085186;28;20298;-85
2023/05/10 03:27:04;;;;;;;6.57;5.57;;;12.50;99.90;;;;;;5069774;28;20240;-84
2023/05/10 03:29:30;;;;;;;6.10;5.50;;;12.80;99.90;;;;;;5087727;28;20039;-84
2023/05/10 03:31:59;;;;;;;6.18;5.57;;;12.50;99.90;;;;;;5104433;28;20470;-84
2023/05/10 03:34:26;;;;;;;7.75;5.82;;;12.50;99.90;;;;;;5106773;28;20451;-84
2023/05/10 03:36:52;;;;;;;6.55;5.45;;;12.50;99.90;;;;;;5105732;28;20109;-85
2023/05/10 03:39:17;;;;;;;6.13;5.47;;;12.40;99.90;;;;;;5106544;28;20031;-85
2023/05/10 03:41:43;;;;;;;6.50;5.70;;;12.50;99.90;;;;;;5107575;28;20043;-85
2023/05/10 03:44:08;;;;;;;7.03;5.82;;;12.40;99.90;;;;;;5107551;28;20490;-85
2023/05/10 03:46:34;;;;;;;7.40;5.70;;;12.40;99.90;;;;;;5089695;28;20079;-84
2023/05/10 03:49:00;;;;;;;8.45;6.25;;;12.40;99.90;;;;;;5106142;28;20108;-85
2023/05/10 03:51:28;;;;;;;8.80;6.03;;;12.40;99.90;;;;;;5108028;28;20070;-85
2023/05/10 03:53:55;;;;;;;7.25;6.28;;;12.40;99.90;;;;;;5106467;28;20062;-85
2023/05/10 03:56:20;;;;;;;7.00;6.28;;;12.40;99.90;;;;;;5106937;28;20050;-85
2023/05/10 03:58:46;;;;;;;10.70;5.57;;;12.40;99.90;;;;;;5106332;28;20035;-85
2023/05/10 04:01:12;;;;;;;6.32;5.68;;;12.40;99.90;;;;;;5106360;28;20052;-85
2023/05/10 04:03:38;;;;;;;6.85;6.10;;;12.40;99.90;;;;;;5106926;28;20083;-85
2023/05/10 04:06:04;;;;;;;6.70;6.00;;;12.40;99.90;;;;;;5106605;28;20040;-85
2023/05/10 04:08:30;;;;;;;7.55;6.45;;;12.40;99.90;;;;;;5089909;28;20213;-85
2023/05/10 04:11:06;;;;;;;7.50;6.40;;;12.40;99.90;;;;;;5088564;28;20130;-85
2023/05/10 04:13:32;;;;;;;6.95;5.78;;;12.40;99.90;;;;;;5106297;28;20089;-84
2023/05/10 04:15:57;;;;;;;8.32;6.63;;;12.50;99.90;;;;;;5090249;28;20048;-84
2023/05/10 04:18:24;;;;;;;7.03;6.20;;;12.30;99.90;;;;;;5108404;28;20044;-85
2023/05/10 04:20:49;;;;;;;8.23;6.00;;;12.40;99.90;;;;;;5106827;28;20035;-84
2023/05/10 04:23:16;;;;;;;6.90;6.00;;;12.40;99.90;;;;;;5107281;28;20043;-85
2023/05/10 04:25:42;;;;;;;7.88;6.25;;;12.40;99.90;;;;;;5101175;28;20117;-84
2023/05/10 04:28:08;;;;;;;8.25;6.15;;;12.40;99.90;;;;;;5100532;28;20048;-85
2023/05/10 04:30:34;;;;;;;7.88;6.20;;;12.40;99.90;;;;;;5106708;28;20050;-85
2023/05/10 04:33:01;;;;;;;9.07;6.57;;;12.40;99.90;;;;;;5107635;28;20457;-85
2023/05/10 04:35:27;;;;;;;10.48;6.50;;;12.40;99.90;;;;;;5111452;28;20040;-85
2023/05/10 04:37:53;;;;;;;7.88;5.90;;;12.40;99.90;;;;;;5107663;28;20040;-85
2023/05/10 04:40:19;;;;;;;7.85;6.40;;;12.40;99.90;;;;;;5091566;28;20474;-85
2023/05/10 04:42:46;;;;;;;9.20;6.72;;;12.50;99.90;;;;;;5108570;28;20055;-84
2023/05/10 04:45:11;;;;;;;7.30;6.25;;;12.50;99.90;;;;;;5107798;28;20043;-85
2023/05/10 04:47:37;;;;;;;7.18;6.20;;;12.40;99.90;;;;;;5109692;28;20062;-84
2023/05/10 04:50:04;;;;;;;6.95;6.05;;;12.50;99.90;;;;;;5092532;28;20106;-85
2023/05/10 04:52:29;;;;;;;7.50;5.93;;;12.50;99.90;;;;;;5093089;28;20055;-85
2023/05/10 04:54:55;;;;;;;7.80;6.07;;;12.50;99.90;;;;;;5109388;28;20043;-84
2023/05/10 04:57:21;;;;;;;9.38;6.53;;;12.50;99.90;;;;;;5109579;28;20055;-84
2023/05/10 04:59:46;;;;;;;7.93;6.20;;;12.50;99.90;;;;;;5092469;28;20523;-84
2023/05/10 05:02:12;;;;;;;6.43;5.60;;;12.40;99.90;;;;;;5099542;28;20136;-85
2023/05/10 05:04:37;;;;;;;7.97;6.53;;;12.50;99.90;;;;;;5090159;28;20086;-84
2023/05/10 05:07:03;;;;;;;8.43;6.20;;;12.50;99.90;;;;;;5090676;28;20051;-85
2023/05/10 05:09:29;;;;;;;9.25;6.57;;;12.50;99.90;;;;;;5088848;28;20044;-85
2023/05/10 05:11:54;;;;;;;9.77;6.53;;;12.60;99.90;;;;;;5090836;28;20074;-85
2023/05/10 05:14:24;;;;;;;7.18;5.70;;;12.60;99.90;;;;;;5090176;28;20076;-84
2023/05/10 05:16:53;;;;;;;6.70;5.65;;;12.60;99.90;;;;;;5105329;28;20039;-85
2023/05/10 05:19:19;;;;;;;6.38;5.50;;;12.70;99.90;;;;;;5089220;28;20359;-84
2023/05/10 05:21:44;;;;;;;6.78;6.07;;;12.70;99.90;;;;;;5091077;28;20043;-85
2023/05/10 05:24:12;;;;;;;6.05;5.20;;;12.80;99.90;;;;;;5090950;28;20056;-85
2023/05/10 05:26:38;;;;;;;8.02;5.72;;;12.80;99.90;;;;;;5110090;28;20161;-86
2023/05/10 05:29:04;;;;;;;7.45;5.88;;;12.80;99.90;;;;;;5108519;28;20071;-84
2023/05/10 05:31:29;;;;;;;5.70;5.20;;;12.90;99.90;;;;;;5101263;28;20051;-85
2023/05/10 05:33:55;;;;;;;7.43;5.93;;;13.10;99.90;;;;;;5091330;28;20085;-84
2023/05/10 05:36:21;;;;;;;7.45;5.63;;;12.90;99.90;;;;;;5103944;28;20051;-85
2023/05/10 05:38:47;;;;;;;6.85;6.10;;;12.90;99.90;;;;;;5089911;28;20040;-85
2023/05/10 05:41:13;;;;;;;7.47;5.72;;;12.90;99.90;;;;;;5110083;28;20051;-85
2023/05/10 05:43:39;;;;;;;6.18;5.57;;;12.90;99.90;;;;;;5107472;28;20082;-83
2023/05/10 05:46:05;;;;;;;7.05;5.40;;;13.00;99.90;;;;;;5111062;27;20126;-83
2023/05/10 05:48:31;;;;;;;6.07;5.18;;;12.90;99.90;;;;;;5112516;27;20065;-83
2023/05/10 05:50:57;;;;;;;6.15;5.05;;;12.80;99.90;;;;;;5130578;27;20051;-82
2023/05/10 05:53:23;;;;;;;8.32;5.63;;;12.80;99.90;;;;;;5129356;27;20054;-81
2023/05/10 05:55:57;;;;;;;6.72;5.63;;;12.80;99.90;;;;;;5091599;27;20090;-85
2023/05/10 05:58:24;;;;;;;6.70;5.88;;;12.80;99.90;;;;;;5112167;27;20477;-84
2023/05/10 06:00:51;;;;;;;8.15;5.75;;;12.80;99.90;;;;;;5096054;27;20039;-84
2023/05/10 06:03:17;;;;;;;9.68;6.63;;;12.90;99.90;;;;;;5130132;27;20232;-84
2023/05/10 06:05:43;;;;;;;8.77;5.90;;;12.70;99.90;;;;;;5111209;27;20386;-84
2023/05/10 06:08:09;;;;;;;7.30;6.25;;;12.70;99.90;;;;;;5110833;27;20044;-84
2023/05/10 06:10:35;;;;;;;10.27;6.50;;;12.70;99.90;;;;;;5117028;27;20124;-82
2023/05/10 06:13:01;;;;;;;8.85;6.43;;;12.70;99.90;;;;;;5091518;28;20470;-84
2023/05/10 06:15:27;;;;;;;8.20;5.88;;;12.70;99.90;;;;;;5086485;27;20035;-85
2023/05/10 06:17:54;;;;;;;9.13;6.82;;;12.80;99.90;;;;;;5108606;27;20090;-83
2023/05/10 06:20:19;;;;;;;8.00;6.00;;;12.70;99.90;;;;;;5112035;27;20130;-84
2023/05/10 06:22:47;;;;;;;8.85;6.10;;;12.70;99.90;;;;;;5111641;27;20143;-83
2023/05/10 06:25:14;;;;;;;7.63;5.03;;;12.80;99.90;;;;;;5111320;27;20513;-84
2023/05/10 06:27:39;;;;;;;6.88;5.35;;;12.80;99.90;;;;;;5110072;27;20047;-83
2023/05/10 06:30:06;;;;;;;6.90;5.32;;;12.90;99.90;;;;;;5110693;27;20053;-84
2023/05/10 06:32:31;;;;;;;8.90;5.68;;;12.80;99.90;;;;;;5107882;27;22056;-84
2023/05/10 06:34:57;;;;;;;6.82;4.95;;;12.80;99.90;;;;;;5108111;27;20047;-84
2023/05/10 06:37:22;;;;;;;6.88;5.20;;;12.90;99.90;;;;;;5110665;27;20100;-83
2023/05/10 06:39:48;;;;;;;6.78;5.47;;;12.90;99.90;;;;;;5110721;27;20051;-83
2023/05/10 06:42:14;;;;;;;6.03;5.18;;;12.90;99.90;;;;;;5111107;27;20046;-82
2023/05/10 06:44:39;;;;;;;7.32;5.03;;;12.90;99.90;;;;;;5110755;27;20066;-83
2023/05/10 06:47:05;;;;;;;6.05;4.22;;;12.90;99.90;;;;;;5107186;28;20147;-84
2023/05/10 06:49:30;;;;;;;9.13;5.45;;;13.00;99.90;;;;;;5107415;28;20112;-83
2023/05/10 06:51:56;;;;;;;9.05;4.68;;;12.90;99.90;;;;;;5085703;28;20040;-84
2023/05/10 06:54:22;;;;;;;6.45;4.70;;;13.00;99.90;;;;;;5105844;28;20043;-83
2023/05/10 06:56:48;;;;;;;5.38;4.28;;;13.00;99.90;;;;;;5107332;28;20051;-81
2023/05/10 06:59:14;;;;;;;7.03;4.70;;;12.90;99.90;;;;;;5107506;28;20519;-83
2023/05/10 07:01:40;;;;;;;6.63;4.50;;;13.00;99.90;;;;;;5107368;28;20047;-84
2023/05/10 07:04:07;;;;;;;8.20;5.18;;;13.20;99.90;;;;;;5107712;28;20100;-82
2023/05/10 07:06:33;;;;;;;5.55;4.55;;;13.10;99.90;;;;;;5097050;28;20222;-82
2023/05/10 07:08:59;;;;;;;7.22;5.07;;;13.10;99.90;;;;;;5094732;28;20178;-81
2023/05/10 07:11:24;;;;;;;5.47;4.63;;;13.20;99.90;;;;;;5104805;28;20050;-82
2023/05/10 07:13:50;;;;;;;5.40;4.78;;;13.20;99.90;;;;;;5104400;28;20059;-81
2023/05/10 07:16:15;;;;;;;7.60;4.72;;;13.20;99.90;;;;;;5105143;28;20043;-84
2023/05/10 07:18:41;;;;;;;5.85;4.82;;;13.30;99.90;;;;;;5087792;28;20055;-84
2023/05/10 07:21:06;;;;;;;6.95;4.53;;;13.20;99.90;;;;;;5104735;28;20070;-81
2023/05/10 07:23:32;;;;;;;6.38;4.85;;;13.30;99.90;;;;;;5102050;28;20050;-83
2023/05/10 07:25:59;;;;;;;5.60;4.75;;;13.30;99.90;;;;;;5103050;28;20048;-82
2023/05/10 07:28:24;;;;;;;6.60;4.78;;;13.30;99.90;;;;;;5103220;28;20450;-82
2023/05/10 07:30:50;;;;;;;6.95;5.13;;;13.30;99.90;;;;;;5091428;28;20130;-82
2023/05/10 07:33:16;;;;;;;6.75;4.80;;;13.30;99.90;;;;;;5090025;28;20040;-83
2023/05/10 07:35:42;;;;;;;6.20;4.57;;;13.40;99.90;;;;;;5106350;28;20039;-83
2023/05/10 07:38:07;;;;;;;5.65;4.38;;;13.40;99.90;;;;;;5105723;28;20043;-82
2023/05/10 07:40:33;;;;;;;6.57;5.13;;;13.40;99.90;;;;;;5103397;28;20521;-83
2023/05/10 07:43:02;;;;;;;5.88;4.65;;;13.40;99.90;;;;;;5104919;28;20044;-82
2023/05/10 07:45:28;;;;;;;6.20;4.57;;;13.40;99.90;;;;;;5108333;28;20075;-83
2023/05/10 07:47:54;;;;;;;6.88;4.97;;;13.40;99.90;;;;;;5103093;28;20095;-83
2023/05/10 07:50:20;;;;;;;6.38;4.10;;;13.40;99.90;;;;;;5103227;28;20573;-82
2023/05/10 07:52:46;;;;;;;4.57;3.50;;;13.40;99.90;;;;;;5106580;28;20131;-82
2023/05/10 07:55:12;;;;;;;5.65;3.85;;;13.40;99.90;;;;;;5104705;28;20135;-82
2023/05/10 07:57:38;;;;;;;5.25;3.97;;;13.40;99.90;;;;;;5107014;28;20044;-83
2023/05/10 08:00:05;;;;;;;3.97;3.50;;;13.40;99.90;;;;;;5106895;28;20047;-82
2023/05/10 08:02:30;;;;;;;5.60;4.07;;;13.40;99.90;;;;;;5104415;28;20055;-82
2023/05/10 08:04:56;;;;;;;4.47;3.97;;;13.40;99.90;;;;;;5100433;28;20134;-82
2023/05/10 08:07:24;;;;;;;4.45;3.65;;;13.40;99.90;;;;;;5087486;28;20055;-81
2023/05/10 08:09:50;;;;;;;4.85;3.78;;;13.50;99.90;;;;;;5110642;28;20044;-82
2023/05/10 08:12:15;;;;;;;5.07;3.67;;;13.50;99.90;;;;;;5110321;28;20035;-83
2023/05/10 08:14:41;;;;;;;4.40;3.33;;;13.70;99.90;;;;;;5109788;28;20116;-82
2023/05/10 08:17:06;;;;;;;3.22;2.92;;;13.70;99.90;;;;;;5109197;28;20521;-83
2023/05/10 08:19:32;;;;;;;3.80;2.63;;;13.90;99.90;;;;;;5109476;28;20088;-83
2023/05/10 08:21:57;;;;;;;3.50;2.67;;;14.40;99.90;;;;;;5110379;28;20106;-82
2023/05/10 08:24:23;;;;;;;2.70;2.28;;;14.00;99.90;;;;;;5110634;28;20101;-82
2023/05/10 08:26:49;;;;;;;2.92;2.45;;;14.00;99.90;;;;;;5109766;28;20075;-83
2023/05/10 08:29:15;;;;;;;2.65;2.45;;;14.00;99.90;;;;;;5109068;28;20050;-82
2023/05/10 08:31:40;;;;;;;3.03;2.40;;;14.10;99.90;;;;;;5109802;28;20465;-82
2023/05/10 08:34:06;;;;;;;3.08;2.78;;;14.20;99.90;;;;;;5109688;28;20097;-82
2023/05/10 08:36:32;;;;;;;4.22;3.60;;;14.30;99.90;;;;;;5111140;28;20484;-82
2023/05/10 08:38:58;;;;;;;6.07;4.20;;;14.40;99.90;;;;;;5110791;28;20039;-82
2023/05/10 08:41:25;;;;;;;3.92;3.40;;;14.30;99.90;;;;;;5110740;28;20043;-82
2023/05/10 08:43:52;;;;;;;4.65;3.55;;;14.30;99.90;;;;;;5108874;28;20126;-83
2023/05/10 08:46:19;;;;;;;5.10;4.25;;;14.20;99.90;;;;;;5092952;28;20520;-85
2023/05/10 08:48:46;;;;;;;5.25;4.30;;;14.20;99.90;;;;;;5110383;27;20070;-84
2023/05/10 08:51:20;;;;;;;6.13;4.78;;;14.10;99.90;;;;;;5088705;28;20055;-84
2023/05/10 08:53:46;;;;;;;4.38;3.85;;;14.20;99.90;;;;;;5089927;28;20331;-84
2023/05/10 08:56:12;;;;;;;8.43;4.38;;;14.60;99.90;;;;;;5088101;28;20124;-84
2023/05/10 08:58:38;;;;;;;6.38;4.65;;;14.30;99.90;;;;;;5103997;28;20074;-83
2023/05/10 09:01:07;;;;;;;5.25;4.00;;;14.30;99.90;;;;;;5110324;28;20493;-83
2023/05/10 09:03:32;;;;;;;6.53;4.75;;;14.20;99.90;;;;;;5110861;28;20375;-84
2023/05/10 09:05:58;;;;;;;7.68;3.97;;;14.20;99.90;;;;;;5110581;28;20051;-84
2023/05/10 09:08:27;;;;;;;5.20;4.20;;;14.10;99.90;;;;;;5107369;28;20039;-84
2023/05/10 09:10:55;;;;;;;4.43;4.03;;;14.50;99.90;;;;;;5108429;28;20513;-82
2023/05/10 09:13:22;;;;;;;4.88;4.15;;;14.20;99.90;;;;;;5107362;28;20471;-82
2023/05/10 09:15:48;;;;;;;4.95;3.97;;;14.30;99.90;;;;;;5110195;28;20409;-82
2023/05/10 09:18:14;;;;;;;4.90;3.75;;;14.30;99.90;;;;;;5090861;28;20040;-81
2023/05/10 09:20:40;;;;;;;5.10;4.13;;;14.30;99.90;;;;;;5110455;28;20187;-82
2023/05/10 09:23:06;;;;;;;4.95;4.38;;;14.40;99.90;;;;;;5109824;28;20043;-81
2023/05/10 09:25:36;;;;;;;6.97;5.22;;;14.30;99.90;;;;;;5108447;28;20096;-81
2023/05/10 09:28:06;;;;;;;8.05;6.00;;;14.20;99.90;;;;;;5089118;28;20130;-82
2023/05/10 09:30:32;;;;;;;8.15;6.57;;;14.20;99.90;;;;;;5108386;28;20051;-81
2023/05/10 09:32:59;;;;;;;9.30;6.10;;;14.20;99.90;;;;;;5110075;28;20092;-82
2023/05/10 09:35:27;;;;;;;8.00;6.22;;;14.10;99.90;;;;;;5108625;28;20040;-82
2023/05/10 09:37:54;;;;;;;9.25;6.97;;;14.10;99.90;;;;;;5108403;28;20050;-81
2023/05/10 09:40:23;;;;;;;8.65;6.82;;;14.20;99.90;;;;;;5109148;28;20413;-82
2023/05/10 09:43:07;;;;;;;7.15;5.97;;;14.20;99.90;;;;;;5110302;28;20048;-82
2023/05/10 09:45:36;;;;;;;9.65;7.03;;;14.30;99.90;;;;;;5107895;28;20058;-82
2023/05/10 09:48:03;;;;;;;7.97;6.53;;;14.50;99.90;;;;;;5128732;27;20134;-82
2023/05/10 09:50:29;;;;;;;8.30;6.93;;;14.60;99.90;;;;;;5129514;27;20045;-82
2023/05/10 09:52:58;;;;;;;9.05;7.18;;;14.70;99.90;;;;;;5111393;27;20050;-82
2023/05/10 09:55:38;;;;;;;8.98;6.40;;;14.90;99.90;;;;;;5129959;27;20067;-81
2023/05/10 09:58:06;;;;;;;7.30;6.43;;;14.90;99.90;;;;;;5130399;27;20036;-82
2023/05/10 10:00:37;;;;;;;7.70;6.63;;;15.00;99.90;;;;;;5129701;27;20122;-81
2023/05/10 10:03:03;;;;;;;8.57;6.32;;;15.10;99.90;;;;;;5109430;28;20052;-81
2023/05/10 10:05:34;;;;;;;6.85;5.88;;;15.20;99.90;;;;;;5092504;27;20035;-81
2023/05/10 10:08:04;;;;;;;8.95;6.40;;;15.30;99.90;;;;;;5124147;27;20046;-82
2023/05/10 10:10:32;;;;;;;7.25;6.03;;;15.20;99.90;;;;;;5124926;27;20043;-83
2023/05/10 10:12:58;;;;;;;7.78;6.75;;;15.20;99.90;;;;;;5091184;27;20038;-82
2023/05/10 10:15:24;;;;;;;7.47;6.53;;;15.50;99.90;;;;;;5124660;27;20031;-82
2023/05/10 10:17:51;;;;;;;8.18;6.60;;;15.40;99.90;;;;;;5110998;27;20035;-82
2023/05/10 10:20:19;;;;;;;7.13;6.28;;;15.40;99.90;;;;;;5108257;27;20400;-81
2023/05/10 10:22:45;;;;;;;8.63;5.95;;;15.50;99.90;;;;;;5109717;27;20412;-81
2023/05/10 10:25:15;;;;;;;7.35;6.30;;;15.60;99.90;;;;;;5126970;27;20042;-82
2023/05/10 10:27:52;;;;;;;7.72;5.97;;;15.60;99.90;;;;;;5129047;27;20114;-82
2023/05/10 10:30:37;;;;;;;6.90;5.78;;;15.60;99.90;;;;;;5150194;27;20115;-82
2023/05/10 10:33:22;;;;;;;6.97;5.68;;;15.50;99.90;;;;;;5117413;27;20501;-81
2023/05/10 10:35:48;;;;;;;8.35;5.80;;;15.50;99.90;;;;;;5116397;27;20382;-82
2023/05/10 10:38:14;;;;;;;5.75;5.15;;;15.60;99.90;;;;;;5109606;27;20058;-82
2023/05/10 10:40:40;;;;;;;6.95;5.22;;;15.60;99.90;;;;;;5102278;27;20188;-81
2023/05/10 10:43:26;;;;;;;5.88;5.18;;;15.70;99.90;;;;;;5069199;28;20044;-82
2023/05/10 10:46:12;;;;;;;7.38;5.22;;;15.70;99.90;;;;;;5087331;28;20043;-81
2023/05/10 10:48:38;;;;;;;5.63;4.80;;;15.70;99.90;;;;;;5070085;28;20052;-81
2023/05/10 10:51:03;;;;;;;5.15;4.47;;;15.70;99.90;;;;;;5086917;28;20113;-81
2023/05/10 10:53:29;;;;;;;5.80;5.20;;;15.80;99.90;;;;;;5088402;28;20051;-80
2023/05/10 10:56:09;;;;;;;5.57;4.20;;;15.80;99.90;;;;;;5088676;28;20538;-81
2023/05/10 10:58:36;;;;;;;5.30;4.80;;;16.00;99.90;;;;;;5068199;28;20089;-81
2023/05/10 11:01:14;;;;;;;5.65;4.57;;;16.30;99.90;;;;;;5070940;28;20091;-82
2023/05/10 11:03:40;;;;;;;8.43;4.47;;;16.40;99.90;;;;;;5073978;28;20041;-81
2023/05/10 11:06:06;;;;;;;4.50;4.00;;;16.40;99.90;;;;;;5076379;28;20052;-81
2023/05/10 11:08:33;;;;;;;4.70;3.75;;;16.40;99.90;;;;;;5049950;28;20146;-81
2023/05/10 11:10:59;;;;;;;4.03;3.60;;;16.30;99.90;;;;;;5068173;28;20056;-81
2023/05/10 11:13:39;;;;;;;5.25;3.83;;;16.20;99.90;;;;;;5066905;28;20049;-81
2023/05/10 11:16:25;;;;;;;4.72;4.13;;;16.10;99.90;;;;;;5070485;28;20052;-82
2023/05/10 11:19:06;;;;;;;3.83;3.38;;;16.00;99.90;;;;;;5084367;28;20100;-81
2023/05/10 11:21:33;;;;;;;5.83;4.20;;;16.00;99.90;;;;;;5049986;28;20415;-81
2023/05/10 11:24:00;;;;;;;4.68;4.05;;;16.00;99.90;;;;;;5067386;28;20275;-81
2023/05/10 11:26:31;;;;;;;4.28;3.88;;;16.00;99.90;;;;;;5068066;28;20048;-81
2023/05/10 11:28:58;;;;;;;6.15;4.72;;;16.00;99.90;;;;;;5049516;28;20060;-81
2023/05/10 11:31:26;;;;;;;5.05;4.15;;;16.00;99.90;;;;;;5074416;28;20057;-82
2023/05/10 11:33:56;;;;;;;5.05;4.55;;;16.00;99.90;;;;;;5101925;28;20043;-82
2023/05/10 11:36:25;;;;;;;5.07;4.10;;;16.00;99.90;;;;;;5053295;28;20115;-82
2023/05/10 11:38:52;;;;;;;5.03;4.53;;;16.00;99.90;;;;;;5089179;28;20382;-82
2023/05/10 11:41:21;;;;;;;6.57;5.07;;;16.00;99.90;;;;;;5090855;28;20554;-82
2023/05/10 11:43:49;;;;;;;5.40;4.90;;;16.10;99.90;;;;;;5088123;28;20063;-81
2023/05/10 11:46:14;;;;;;;5.15;4.63;;;16.10;99.90;;;;;;5073505;28;20124;-82
2023/05/10 11:48:41;;;;;;;6.53;4.70;;;16.10;99.90;;;;;;5090669;28;20028;-81
2023/05/10 11:51:08;;;;;;;5.40;4.57;;;16.20;99.90;;;;;;5089624;28;20051;-81
2023/05/10 11:53:34;;;;;;;5.20;4.70;;;16.00;99.90;;;;;;5072709;28;20410;-81
2023/05/10 11:56:10;;;;;;;5.07;4.57;;;16.00;99.90;;;;;;5091094;28;20331;-81
2023/05/10 11:58:37;;;;;;;5.03;4.57;;;16.00;99.90;;;;;;5091671;28;20101;-81
2023/05/10 12:01:05;;;;;;;5.10;4.60;;;16.10;99.90;;;;;;5073078;28;20052;-83
2023/05/10 12:03:31;;;;;;;6.15;4.45;;;16.10;99.90;;;;;;5092148;28;20036;-83
2023/05/10 12:05:58;;;;;;;6.60;4.78;;;16.20;99.90;;;;;;5072939;28;20063;-82
2023/05/10 12:08:25;;;;;;;6.60;4.30;;;16.30;99.90;;;;;;5092038;28;20048;-83
2023/05/10 12:10:52;;;;;;;5.03;4.18;;;16.30;99.90;;;;;;5056723;28;20076;-78
2023/05/10 12:13:20;;;;;;;5.82;5.10;;;16.30;99.90;;;;;;5090355;28;20040;-78
2023/05/10 12:15:45;;;;;;;5.53;4.20;;;16.40;99.90;;;;;;5073656;28;20390;-79
2023/05/10 12:18:12;;;;;;;6.63;4.32;;;16.50;99.90;;;;;;5091199;28;20337;-80
2023/05/10 12:20:38;;;;;;;5.65;4.68;;;16.60;99.90;;;;;;5073094;28;20059;-81
2023/05/10 12:23:05;;;;;;;5.68;4.80;;;16.60;99.90;;;;;;5054398;28;20044;-81
2023/05/10 12:25:35;;;;;;;6.57;5.00;;;16.60;99.90;;;;;;5072643;28;20083;-81
2023/05/10 12:28:05;;;;;;;5.88;5.05;;;16.50;99.90;;;;;;5088795;28;20127;-81
2023/05/10 12:30:33;;;;;;;7.00;5.25;;;16.30;99.90;;;;;;5072751;28;20064;-81
2023/05/10 12:33:10;;;;;;;7.30;4.97;;;16.30;99.90;;;;;;5070626;28;20056;-81
2023/05/10 12:35:56;;;;;;;7.28;5.32;;;16.20;99.90;;;;;;5089095;28;20397;-81
2023/05/10 12:38:37;;;;;;;5.93;4.90;;;16.10;99.90;;;;;;5070872;28;20086;-80
2023/05/10 12:41:04;;;;;;;8.45;6.18;;;16.10;99.90;;;;;;5089108;28;20051;-81
2023/05/10 12:43:30;;;;;;;7.93;6.28;;;16.10;99.90;;;;;;5070312;28;20056;-81
2023/05/10 12:45:56;;;;;;;9.48;6.25;;;16.00;99.90;;;;;;5088709;28;20130;-81
2023/05/10 12:48:22;;;;;;;6.93;5.85;;;16.00;99.90;;;;;;5070817;28;20128;-81
2023/05/10 12:50:48;;;;;;;7.75;5.97;;;16.00;99.90;;;;;;5090564;28;20478;-81